Greens Farms, Connecticut
Current Conditions -  °F | °C
As of 2:52 PM on Saturday 25 Oct 2014 (Local Time) from KBDR Reporting Station
Few Clouds Few Clouds  
Wind Chill: 65°   Ceiling: Unl
Heat Index: 65°   Visibility: 10mi
Dew Point: 50°   Wind: 17mph
Humidity: 58%   Direction: 230°SW
Pressure: 29.68"   Gusts: NA
Location:  41.12°N, 73.32°W
Report Text: KBDR 251852Z 23015KT 10SM FEW055 18/10 A2968 RMK AO2 SLP050 T01830100
Loading
Personal Weather Stations






























Interactive Weather Map
Tropical Storm Tracking
New forecast layout! Learn more

10-Day Weather Forecast

Advertisements
Track Severe Weather on mobile